QFA123 YSSY-VABB
Flight info
| Callsign | QFA123 |
|---|---|
| Flight time | N/A |
| Altitude | 20000 |
| Route | WOL W652 ODALE W113 AKMIR W440 PKS/N0477F340 G222 KADBA/N0481F360 G222 METUM/N0477F380 G222 SAPDA L896 PAKRA/N0469F400 L896 MMV Q8 AGELA MOLGO2A |
| Aircraft | A332/H-SDE3GHIJ2J3J5M1RVWXY/LB2D1 |
Departure
| Time | N/A |
|---|---|
| Airport | Sydney Kingsford Smith International Airport (YSSY) |
Arrival
| Time | 2026-04-28 17:28 |
|---|---|
| Airport | Chhatrapati Shivaji Maharaj International Airport (VABB) |
| Time | Latitude | Longitude | Altitude | Speed | Heading |
|---|---|---|---|---|---|
| 2026-04-28 14:41 | 6.98454 | 87.29353 | 39853 ft | 471 kts | 308° |
| 2026-04-28 14:42 | 7.00446 | 87.26794 | 39854 ft | 470 kts | 308° |
| 2026-04-28 14:42 | 7.04479 | 87.21611 | 39855 ft | 470 kts | 308° |
| 2026-04-28 14:43 | 7.08510 | 87.16429 | 39853 ft | 470 kts | 308° |
| 2026-04-28 14:43 | 7.12525 | 87.11236 | 39853 ft | 470 kts | 307° |
| 2026-04-28 14:44 | 7.16507 | 87.06030 | 39849 ft | 470 kts | 307° |
| 2026-04-28 14:44 | 7.20491 | 87.00816 | 39850 ft | 470 kts | 307° |
| 2026-04-28 14:45 | 7.24478 | 86.95604 | 39863 ft | 469 kts | 307° |
| 2026-04-28 14:45 | 7.28463 | 86.90398 | 39847 ft | 469 kts | 307° |
| 2026-04-28 14:46 | 7.32442 | 86.85199 | 39865 ft | 468 kts | 307° |
| 2026-04-28 14:46 | 7.36414 | 86.80009 | 39865 ft | 467 kts | 307° |
| 2026-04-28 14:47 | 7.40371 | 86.74834 | 39846 ft | 467 kts | 307° |
| 2026-04-28 14:47 | 7.44332 | 86.69652 | 39863 ft | 466 kts | 307° |
| 2026-04-28 14:48 | 7.48295 | 86.64466 | 39845 ft | 468 kts | 307° |
| 2026-04-28 14:48 | 7.52264 | 86.59271 | 39861 ft | 468 kts | 307° |
| 2026-04-28 14:49 | 7.56238 | 86.54068 | 39846 ft | 467 kts | 307° |
| 2026-04-28 14:49 | 7.60179 | 86.48907 | 39858 ft | 462 kts | 307° |
| 2026-04-28 14:50 | 7.64059 | 86.43823 | 39844 ft | 460 kts | 307° |
| 2026-04-28 14:50 | 7.67963 | 86.38705 | 39861 ft | 460 kts | 307° |
| 2026-04-28 14:51 | 7.71858 | 86.33600 | 39843 ft | 459 kts | 307° |
| 2026-04-28 14:51 | 7.75741 | 86.28506 | 39857 ft | 458 kts | 307° |
| 2026-04-28 14:52 | 7.79624 | 86.23411 | 39844 ft | 458 kts | 307° |
| 2026-04-28 14:52 | 7.83502 | 86.18322 | 39882 ft | 458 kts | 307° |
| 2026-04-28 14:53 | 7.87378 | 86.13232 | 39866 ft | 457 kts | 307° |
| 2026-04-28 14:53 | 7.91249 | 86.08145 | 39883 ft | 458 kts | 307° |
| 2026-04-28 14:54 | 7.95148 | 86.03023 | 39878 ft | 461 kts | 307° |
| 2026-04-28 14:54 | 7.99039 | 85.97910 | 39881 ft | 459 kts | 307° |
| 2026-04-28 14:55 | 8.02941 | 85.92779 | 39879 ft | 462 kts | 307° |
| 2026-04-28 14:55 | 8.06842 | 85.87650 | 39881 ft | 460 kts | 307° |
| 2026-04-28 14:56 | 8.10730 | 85.82536 | 39882 ft | 458 kts | 307° |
| 2026-04-28 14:56 | 8.14578 | 85.77470 | 39881 ft | 459 kts | 307° |
| 2026-04-28 14:57 | 8.18461 | 85.72358 | 39880 ft | 458 kts | 307° |
| 2026-04-28 14:57 | 8.22342 | 85.67244 | 39879 ft | 460 kts | 307° |
| 2026-04-28 14:58 | 8.26244 | 85.62103 | 39879 ft | 462 kts | 307° |
| 2026-04-28 14:58 | 8.30157 | 85.56946 | 39869 ft | 462 kts | 307° |
| 2026-04-28 14:59 | 8.34066 | 85.51792 | 39874 ft | 462 kts | 307° |
| 2026-04-28 14:59 | 8.37968 | 85.46644 | 39875 ft | 461 kts | 307° |
| 2026-04-28 15:00 | 8.41865 | 85.41503 | 39856 ft | 460 kts | 307° |
| 2026-04-28 15:00 | 8.45766 | 85.36352 | 39873 ft | 463 kts | 307° |
| 2026-04-28 15:01 | 8.49685 | 85.31181 | 39869 ft | 462 kts | 306° |
| 2026-04-28 15:01 | 8.53587 | 85.26028 | 39866 ft | 462 kts | 306° |
| 2026-04-28 15:02 | 8.57461 | 85.20905 | 39868 ft | 463 kts | 307° |
| 2026-04-28 15:02 | 8.61379 | 85.15725 | 39873 ft | 464 kts | 307° |
| 2026-04-28 15:03 | 8.65303 | 85.10538 | 39869 ft | 464 kts | 306° |
| 2026-04-28 15:03 | 8.69209 | 85.05371 | 39873 ft | 461 kts | 307° |
| 2026-04-28 15:04 | 8.73089 | 85.00233 | 39860 ft | 459 kts | 307° |
| 2026-04-28 15:04 | 8.76971 | 84.95093 | 39874 ft | 460 kts | 306° |
| 2026-04-28 15:05 | 8.80847 | 84.89961 | 39874 ft | 458 kts | 306° |
| 2026-04-28 15:05 | 8.84711 | 84.84841 | 39858 ft | 458 kts | 306° |
| 2026-04-28 15:06 | 8.88632 | 84.79777 | 39876 ft | 457 kts | 310° |
| 2026-04-28 15:06 | 8.92872 | 84.74974 | 39873 ft | 458 kts | 311° |
| 2026-04-28 15:07 | 8.97170 | 84.70228 | 39858 ft | 458 kts | 311° |
| 2026-04-28 15:07 | 9.01486 | 84.65485 | 39868 ft | 459 kts | 311° |
| 2026-04-28 15:08 | 9.05806 | 84.60727 | 39871 ft | 459 kts | 312° |
| 2026-04-28 15:08 | 9.10141 | 84.55943 | 39866 ft | 463 kts | 312° |
| 2026-04-28 15:09 | 9.14494 | 84.51135 | 39869 ft | 464 kts | 312° |
| 2026-04-28 15:09 | 9.18828 | 84.46347 | 39871 ft | 465 kts | 312° |
| 2026-04-28 15:10 | 9.23201 | 84.41514 | 39856 ft | 466 kts | 312° |
| 2026-04-28 15:10 | 9.27568 | 84.36684 | 39856 ft | 464 kts | 312° |
| 2026-04-28 15:11 | 9.31915 | 84.31876 | 39870 ft | 463 kts | 312° |
| 2026-04-28 15:11 | 9.36263 | 84.27066 | 39872 ft | 463 kts | 312° |
| 2026-04-28 15:12 | 9.40608 | 84.22257 | 39871 ft | 462 kts | 312° |
| 2026-04-28 15:12 | 9.44954 | 84.17445 | 39870 ft | 464 kts | 312° |
| 2026-04-28 15:13 | 9.49305 | 84.12624 | 39858 ft | 464 kts | 312° |
| 2026-04-28 15:13 | 9.53657 | 84.07797 | 39875 ft | 463 kts | 312° |
| 2026-04-28 15:14 | 9.58000 | 84.02983 | 39855 ft | 463 kts | 312° |
| 2026-04-28 15:14 | 9.62353 | 83.98155 | 39869 ft | 464 kts | 312° |
| 2026-04-28 15:15 | 9.66704 | 83.93323 | 39873 ft | 463 kts | 312° |
| 2026-04-28 15:15 | 9.71031 | 83.88521 | 39857 ft | 461 kts | 311° |
| 2026-04-28 15:16 | 9.75358 | 83.83716 | 39875 ft | 462 kts | 311° |
| 2026-04-28 15:16 | 9.79698 | 83.78894 | 39869 ft | 464 kts | 311° |
| 2026-04-28 15:17 | 9.84051 | 83.74055 | 39864 ft | 464 kts | 311° |
| 2026-04-28 15:17 | 9.88376 | 83.69246 | 39867 ft | 464 kts | 311° |
| 2026-04-28 15:18 | 9.92730 | 83.64403 | 39867 ft | 465 kts | 311° |
| 2026-04-28 15:18 | 9.97087 | 83.59555 | 39869 ft | 466 kts | 311° |
| 2026-04-28 15:19 | 10.01460 | 83.54686 | 39866 ft | 467 kts | 311° |
| 2026-04-28 15:19 | 10.05830 | 83.49816 | 39865 ft | 466 kts | 311° |
| 2026-04-28 15:20 | 10.10190 | 83.44958 | 39860 ft | 465 kts | 311° |
| 2026-04-28 15:20 | 10.14544 | 83.40102 | 39861 ft | 465 kts | 310° |
| 2026-04-28 15:21 | 10.18885 | 83.35258 | 39862 ft | 464 kts | 310° |
| 2026-04-28 15:21 | 10.23230 | 83.30411 | 39853 ft | 464 kts | 310° |
| 2026-04-28 15:22 | 10.27582 | 83.25558 | 39858 ft | 465 kts | 311° |
| 2026-04-28 15:22 | 10.31942 | 83.20687 | 39856 ft | 466 kts | 311° |
| 2026-04-28 15:23 | 10.36306 | 83.15810 | 39857 ft | 466 kts | 311° |
| 2026-04-28 15:23 | 10.40668 | 83.10932 | 39855 ft | 466 kts | 311° |
| 2026-04-28 15:24 | 10.45027 | 83.06057 | 39856 ft | 466 kts | 311° |
| 2026-04-28 15:24 | 10.49384 | 83.01182 | 39858 ft | 466 kts | 311° |
| 2026-04-28 15:25 | 10.53700 | 82.96352 | 39855 ft | 463 kts | 311° |
| 2026-04-28 15:25 | 10.58014 | 82.91521 | 39858 ft | 461 kts | 311° |
| 2026-04-28 15:26 | 10.62317 | 82.86701 | 39852 ft | 461 kts | 311° |
| 2026-04-28 15:26 | 10.66612 | 82.81861 | 39854 ft | 461 kts | 311° |
| 2026-04-28 15:27 | 10.70173 | 82.77826 | 39858 ft | 461 kts | 311° |
| 2026-04-28 15:27 | 10.74451 | 82.72974 | 39855 ft | 461 kts | 311° |
| 2026-04-28 15:28 | 10.78729 | 82.68123 | 39853 ft | 461 kts | 311° |
| 2026-04-28 15:28 | 10.83005 | 82.63275 | 39854 ft | 461 kts | 311° |
| 2026-04-28 15:29 | 10.87282 | 82.58424 | 39858 ft | 460 kts | 311° |
| 2026-04-28 15:29 | 10.91542 | 82.53591 | 39849 ft | 458 kts | 311° |
| 2026-04-28 15:30 | 10.95792 | 82.48765 | 39849 ft | 458 kts | 311° |
| 2026-04-28 15:30 | 11.00041 | 82.43939 | 39851 ft | 458 kts | 310° |
| 2026-04-28 15:31 | 11.04285 | 82.39116 | 39851 ft | 458 kts | 311° |
| 2026-04-28 15:31 | 11.08536 | 82.34283 | 39846 ft | 458 kts | 311° |
| 2026-04-28 15:32 | 11.12790 | 82.29444 | 39849 ft | 459 kts | 311° |
| 2026-04-28 15:32 | 11.17044 | 82.24604 | 39849 ft | 458 kts | 311° |
| 2026-04-28 15:33 | 11.21296 | 82.19762 | 39856 ft | 458 kts | 311° |
| 2026-04-28 15:33 | 11.25546 | 82.14922 | 39850 ft | 458 kts | 310° |
| 2026-04-28 15:34 | 11.29790 | 82.10085 | 39848 ft | 458 kts | 310° |
| 2026-04-28 15:34 | 11.34028 | 82.05253 | 39833 ft | 458 kts | 310° |
| 2026-04-28 15:35 | 11.38241 | 82.00447 | 39853 ft | 458 kts | 310° |
| 2026-04-28 15:35 | 11.44603 | 81.93186 | 39850 ft | 458 kts | 310° |
| 2026-04-28 15:36 | 11.48842 | 81.88344 | 39830 ft | 458 kts | 310° |
| 2026-04-28 15:36 | 11.53079 | 81.83505 | 39848 ft | 457 kts | 310° |
| 2026-04-28 15:37 | 11.57306 | 81.78672 | 39831 ft | 456 kts | 310° |
| 2026-04-28 15:37 | 11.61528 | 81.73842 | 39848 ft | 456 kts | 310° |
| 2026-04-28 15:38 | 11.65746 | 81.69013 | 39830 ft | 457 kts | 310° |
| 2026-04-28 15:38 | 11.69978 | 81.64167 | 39845 ft | 457 kts | 311° |
| 2026-04-28 15:39 | 11.74209 | 81.59323 | 39844 ft | 457 kts | 310° |
| 2026-04-28 15:39 | 11.78434 | 81.54480 | 39827 ft | 457 kts | 310° |
| 2026-04-28 15:40 | 11.82660 | 81.49635 | 39842 ft | 457 kts | 310° |
| 2026-04-28 15:40 | 11.86878 | 81.44798 | 39824 ft | 456 kts | 310° |
| 2026-04-28 15:41 | 11.91089 | 81.39964 | 39841 ft | 455 kts | 310° |
| 2026-04-28 15:41 | 11.95268 | 81.35165 | 39838 ft | 455 kts | 310° |
| 2026-04-28 15:42 | 11.99477 | 81.30329 | 39838 ft | 455 kts | 310° |
| 2026-04-28 15:42 | 12.03685 | 81.25490 | 39822 ft | 455 kts | 310° |
| 2026-04-28 15:43 | 12.07890 | 81.20655 | 39837 ft | 455 kts | 310° |
| 2026-04-28 15:43 | 12.12096 | 81.15816 | 39819 ft | 455 kts | 310° |
| 2026-04-28 15:44 | 12.16295 | 81.10981 | 39820 ft | 455 kts | 310° |
| 2026-04-28 15:44 | 12.20492 | 81.06145 | 39836 ft | 455 kts | 310° |
| 2026-04-28 15:45 | 12.24691 | 81.01306 | 39815 ft | 455 kts | 310° |
| 2026-04-28 15:45 | 12.28884 | 80.96472 | 39833 ft | 454 kts | 310° |
| 2026-04-28 15:46 | 12.33069 | 80.91644 | 39815 ft | 453 kts | 310° |
| 2026-04-28 15:46 | 12.37218 | 80.86855 | 39821 ft | 452 kts | 310° |
| 2026-04-28 15:47 | 12.41380 | 80.82048 | 39809 ft | 451 kts | 310° |
| 2026-04-28 15:47 | 12.45535 | 80.77247 | 39823 ft | 451 kts | 310° |
| 2026-04-28 15:48 | 12.49692 | 80.72441 | 39800 ft | 451 kts | 310° |
| 2026-04-28 15:48 | 12.53848 | 80.67633 | 39818 ft | 451 kts | 310° |
| 2026-04-28 15:49 | 12.58004 | 80.62823 | 39801 ft | 451 kts | 310° |
| 2026-04-28 15:49 | 12.62158 | 80.58014 | 39802 ft | 450 kts | 310° |
| 2026-04-28 15:50 | 12.66287 | 80.53230 | 39802 ft | 447 kts | 310° |
| 2026-04-28 15:50 | 12.70408 | 80.48453 | 39814 ft | 448 kts | 310° |
| 2026-04-28 15:51 | 12.74536 | 80.43665 | 39804 ft | 448 kts | 310° |
| 2026-04-28 15:51 | 12.78638 | 80.38906 | 39815 ft | 448 kts | 310° |
| 2026-04-28 15:52 | 12.82766 | 80.34113 | 39822 ft | 448 kts | 310° |
| 2026-04-28 15:52 | 12.86888 | 80.29325 | 39824 ft | 448 kts | 310° |
| 2026-04-28 15:53 | 12.91015 | 80.24528 | 39829 ft | 448 kts | 310° |
| 2026-04-28 15:53 | 12.95141 | 80.19731 | 39837 ft | 448 kts | 309° |
| 2026-04-28 15:54 | 12.99251 | 80.14925 | 39832 ft | 448 kts | 308° |
| 2026-04-28 15:54 | 13.03228 | 80.10003 | 39819 ft | 448 kts | 307° |
| 2026-04-28 15:55 | 13.07151 | 80.05033 | 39827 ft | 448 kts | 307° |
| 2026-04-28 15:55 | 13.11078 | 80.00069 | 39817 ft | 448 kts | 307° |
| 2026-04-28 15:56 | 13.15012 | 79.95118 | 39801 ft | 448 kts | 307° |
| 2026-04-28 15:56 | 13.18952 | 79.90165 | 39789 ft | 448 kts | 307° |
| 2026-04-28 15:57 | 13.22864 | 79.85247 | 39798 ft | 448 kts | 307° |
| 2026-04-28 15:57 | 13.26802 | 79.80292 | 39783 ft | 448 kts | 307° |
| 2026-04-28 15:58 | 13.30736 | 79.75339 | 39804 ft | 446 kts | 307° |
| 2026-04-28 15:58 | 13.34650 | 79.70408 | 39793 ft | 445 kts | 307° |
| 2026-04-28 15:59 | 13.37924 | 79.66280 | 39808 ft | 445 kts | 307° |
| 2026-04-28 15:59 | 13.42464 | 79.60555 | 39810 ft | 445 kts | 307° |
| 2026-04-28 16:00 | 13.46371 | 79.55624 | 39793 ft | 445 kts | 307° |
| 2026-04-28 16:00 | 13.50276 | 79.50693 | 39793 ft | 445 kts | 307° |
| 2026-04-28 16:01 | 13.54176 | 79.45766 | 39811 ft | 445 kts | 307° |
| 2026-04-28 16:01 | 13.58081 | 79.40829 | 39812 ft | 445 kts | 307° |
| 2026-04-28 16:02 | 13.61987 | 79.35889 | 39797 ft | 445 kts | 307° |
| 2026-04-28 16:02 | 13.65895 | 79.30944 | 39812 ft | 444 kts | 307° |
| 2026-04-28 16:03 | 13.69763 | 79.26045 | 39821 ft | 444 kts | 307° |
| 2026-04-28 16:03 | 13.73656 | 79.21111 | 39827 ft | 444 kts | 307° |
| 2026-04-28 16:04 | 13.77544 | 79.16182 | 39827 ft | 444 kts | 307° |
| 2026-04-28 16:04 | 13.81432 | 79.11249 | 39841 ft | 444 kts | 307° |
| 2026-04-28 16:05 | 13.85320 | 79.06314 | 39839 ft | 444 kts | 307° |
| 2026-04-28 16:05 | 13.89203 | 79.01383 | 39839 ft | 442 kts | 307° |
| 2026-04-28 16:06 | 13.93073 | 78.96464 | 39864 ft | 442 kts | 307° |
| 2026-04-28 16:06 | 13.96941 | 78.91546 | 39847 ft | 442 kts | 307° |
| 2026-04-28 16:07 | 14.00813 | 78.86619 | 39842 ft | 443 kts | 307° |
| 2026-04-28 16:08 | 14.06626 | 78.79217 | 39849 ft | 443 kts | 307° |
| 2026-04-28 16:08 | 14.10503 | 78.74277 | 39842 ft | 443 kts | 307° |
| 2026-04-28 16:09 | 14.16317 | 78.66864 | 39853 ft | 443 kts | 307° |
| 2026-04-28 16:10 | 14.22078 | 78.59511 | 39856 ft | 440 kts | 307° |
| 2026-04-28 16:10 | 14.27850 | 78.52138 | 39847 ft | 440 kts | 307° |
| 2026-04-28 16:11 | 14.35523 | 78.42325 | 39846 ft | 438 kts | 307° |
| 2026-04-28 16:12 | 14.41261 | 78.34979 | 39853 ft | 438 kts | 307° |
| 2026-04-28 16:13 | 14.46996 | 78.27630 | 39851 ft | 438 kts | 307° |
| 2026-04-28 16:14 | 14.54640 | 78.17826 | 39859 ft | 438 kts | 307° |
| 2026-04-28 16:15 | 14.62279 | 78.08015 | 39874 ft | 438 kts | 307° |
| 2026-04-28 16:15 | 14.66088 | 78.03119 | 39868 ft | 435 kts | 306° |
| 2026-04-28 16:16 | 14.71755 | 77.95829 | 39867 ft | 433 kts | 306° |
| 2026-04-28 16:17 | 14.77432 | 77.88517 | 39873 ft | 437 kts | 306° |
| 2026-04-28 16:17 | 14.81236 | 77.83615 | 39872 ft | 437 kts | 306° |
| 2026-04-28 16:18 | 14.85015 | 77.78742 | 39873 ft | 437 kts | 306° |
| 2026-04-28 16:18 | 14.88816 | 77.73839 | 39868 ft | 437 kts | 306° |
| 2026-04-28 16:19 | 14.92611 | 77.68939 | 39870 ft | 437 kts | 306° |
| 2026-04-28 16:19 | 14.96410 | 77.64032 | 39870 ft | 437 kts | 306° |
| 2026-04-28 16:20 | 15.00209 | 77.59120 | 39864 ft | 437 kts | 306° |
| 2026-04-28 16:20 | 15.03369 | 77.55033 | 39867 ft | 438 kts | 306° |
| 2026-04-28 16:21 | 15.07176 | 77.50106 | 39870 ft | 439 kts | 306° |
| 2026-04-28 16:21 | 15.10987 | 77.45171 | 39870 ft | 439 kts | 306° |
| 2026-04-28 16:22 | 15.14797 | 77.40234 | 39871 ft | 439 kts | 306° |
| 2026-04-28 16:22 | 15.18604 | 77.35298 | 39870 ft | 439 kts | 306° |
| 2026-04-28 16:23 | 15.22412 | 77.30357 | 39865 ft | 439 kts | 306° |
| 2026-04-28 16:23 | 15.26213 | 77.25422 | 39869 ft | 439 kts | 306° |
| 2026-04-28 16:24 | 15.30015 | 77.20481 | 39866 ft | 438 kts | 307° |
| 2026-04-28 16:24 | 15.33803 | 77.15557 | 39862 ft | 436 kts | 307° |
| 2026-04-28 16:25 | 15.37584 | 77.10640 | 39860 ft | 436 kts | 307° |
| 2026-04-28 16:25 | 15.41360 | 77.05718 | 39857 ft | 436 kts | 307° |
| 2026-04-28 16:26 | 15.45108 | 77.00778 | 39857 ft | 436 kts | 306° |
| 2026-04-28 16:26 | 15.48850 | 76.95828 | 39856 ft | 436 kts | 306° |
| 2026-04-28 16:27 | 15.52593 | 76.90875 | 39854 ft | 436 kts | 306° |
| 2026-04-28 16:28 | 15.58203 | 76.83452 | 39850 ft | 436 kts | 306° |
| 2026-04-28 16:28 | 15.61911 | 76.78543 | 39853 ft | 434 kts | 306° |
| 2026-04-28 16:29 | 15.67468 | 76.71181 | 39852 ft | 431 kts | 306° |
| 2026-04-28 16:30 | 15.73014 | 76.63826 | 39855 ft | 431 kts | 306° |
| 2026-04-28 16:30 | 15.76709 | 76.58921 | 39857 ft | 431 kts | 306° |
| 2026-04-28 16:31 | 15.80402 | 76.54017 | 39856 ft | 431 kts | 306° |
| 2026-04-28 16:31 | 15.84094 | 76.49109 | 39850 ft | 431 kts | 307° |
| 2026-04-28 16:32 | 15.87793 | 76.44191 | 39854 ft | 432 kts | 307° |
| 2026-04-28 16:32 | 15.93341 | 76.36807 | 39853 ft | 432 kts | 306° |
| 2026-04-28 16:33 | 15.96413 | 76.32715 | 39857 ft | 432 kts | 306° |
| 2026-04-28 16:33 | 16.00726 | 76.26967 | 39857 ft | 431 kts | 306° |
| 2026-04-28 16:34 | 16.04390 | 76.22079 | 39848 ft | 431 kts | 306° |
| 2026-04-28 16:34 | 16.08079 | 76.17155 | 39848 ft | 431 kts | 306° |
| 2026-04-28 16:35 | 16.11767 | 76.12230 | 39847 ft | 432 kts | 306° |
| 2026-04-28 16:35 | 16.15456 | 76.07298 | 39849 ft | 432 kts | 306° |
| 2026-04-28 16:36 | 16.19141 | 76.02370 | 39842 ft | 432 kts | 306° |
| 2026-04-28 16:36 | 16.22828 | 75.97435 | 39861 ft | 432 kts | 306° |
| 2026-04-28 16:37 | 16.26518 | 75.92494 | 39847 ft | 432 kts | 306° |
| 2026-04-28 16:38 | 16.32036 | 75.85097 | 39845 ft | 431 kts | 306° |
| 2026-04-28 16:38 | 16.35716 | 75.80160 | 39847 ft | 432 kts | 306° |
| 2026-04-28 16:39 | 16.39398 | 75.75218 | 39848 ft | 432 kts | 306° |
| 2026-04-28 16:39 | 16.43087 | 75.70261 | 39843 ft | 433 kts | 306° |
| 2026-04-28 16:40 | 16.46779 | 75.65298 | 39843 ft | 433 kts | 306° |
| 2026-04-28 16:40 | 16.50468 | 75.60334 | 39841 ft | 433 kts | 306° |
| 2026-04-28 16:41 | 16.54153 | 75.55374 | 39850 ft | 433 kts | 307° |
| 2026-04-28 16:41 | 16.57822 | 75.50430 | 39841 ft | 435 kts | 307° |
| 2026-04-28 16:42 | 16.61539 | 75.45444 | 39832 ft | 436 kts | 307° |
| 2026-04-28 16:42 | 16.65293 | 75.40487 | 39827 ft | 435 kts | 307° |
| 2026-04-28 16:43 | 16.69046 | 75.35534 | 39834 ft | 435 kts | 307° |
| 2026-04-28 16:43 | 16.72794 | 75.30582 | 39833 ft | 435 kts | 307° |
| 2026-04-28 16:44 | 16.76540 | 75.25628 | 39835 ft | 435 kts | 307° |
| 2026-04-28 16:44 | 16.80285 | 75.20671 | 39845 ft | 435 kts | 307° |
| 2026-04-28 16:45 | 16.84030 | 75.15712 | 39843 ft | 435 kts | 307° |
| 2026-04-28 16:45 | 16.87777 | 75.10745 | 39848 ft | 437 kts | 308° |
| 2026-04-28 16:46 | 16.91548 | 75.05744 | 39857 ft | 439 kts | 308° |
| 2026-04-28 16:46 | 16.95327 | 75.00729 | 39860 ft | 439 kts | 308° |
| 2026-04-28 16:47 | 16.99102 | 74.95714 | 39858 ft | 439 kts | 308° |
| 2026-04-28 16:47 | 17.02854 | 74.90727 | 39862 ft | 439 kts | 308° |
| 2026-04-28 16:48 | 17.06632 | 74.85702 | 39855 ft | 439 kts | 308° |
| 2026-04-28 16:48 | 17.10407 | 74.80677 | 39855 ft | 439 kts | 307° |
| 2026-04-28 16:49 | 17.14181 | 74.75649 | 39863 ft | 439 kts | 307° |
| 2026-04-28 16:49 | 17.17956 | 74.70616 | 39862 ft | 440 kts | 308° |
| 2026-04-28 16:50 | 17.21738 | 74.65571 | 39860 ft | 442 kts | 308° |
| 2026-04-28 16:50 | 17.25527 | 74.60513 | 39865 ft | 442 kts | 308° |
| 2026-04-28 16:51 | 17.29314 | 74.55454 | 39654 ft | 440 kts | 308° |
| 2026-04-28 16:51 | 17.31198 | 74.52935 | 39224 ft | 439 kts | 307° |
| 2026-04-28 16:51 | 17.33076 | 74.50425 | 38775 ft | 437 kts | 307° |
| 2026-04-28 16:51 | 17.34924 | 74.47953 | 38252 ft | 437 kts | 307° |
| 2026-04-28 16:52 | 17.36818 | 74.45418 | 37718 ft | 435 kts | 306° |
| 2026-04-28 16:52 | 17.38675 | 74.42932 | 37231 ft | 433 kts | 306° |
| 2026-04-28 16:52 | 17.40532 | 74.40445 | 36730 ft | 432 kts | 306° |
| 2026-04-28 16:52 | 17.42376 | 74.37975 | 36228 ft | 431 kts | 306° |
| 2026-04-28 16:53 | 17.44193 | 74.35538 | 35711 ft | 430 kts | 306° |
| 2026-04-28 16:53 | 17.46034 | 74.33070 | 35155 ft | 430 kts | 305° |
| 2026-04-28 16:53 | 17.47877 | 74.30597 | 34557 ft | 431 kts | 305° |
| 2026-04-28 16:53 | 17.49725 | 74.28118 | 33945 ft | 432 kts | 305° |
| 2026-04-28 16:54 | 17.51580 | 74.25628 | 33221 ft | 434 kts | 305° |
| 2026-04-28 16:54 | 17.53437 | 74.23134 | 32527 ft | 434 kts | 305° |
| 2026-04-28 16:54 | 17.55296 | 74.20637 | 31854 ft | 434 kts | 304° |
| 2026-04-28 16:54 | 17.56549 | 74.18953 | 31377 ft | 435 kts | 304° |
| 2026-04-28 16:55 | 17.59015 | 74.15638 | 30558 ft | 434 kts | 304° |
| 2026-04-28 16:55 | 17.60858 | 74.13162 | 30130 ft | 428 kts | 304° |
| 2026-04-28 16:55 | 17.62679 | 74.10714 | 29599 ft | 423 kts | 304° |
| 2026-04-28 16:55 | 17.64478 | 74.08293 | 29101 ft | 418 kts | 304° |
| 2026-04-28 16:56 | 17.66250 | 74.05908 | 28664 ft | 412 kts | 304° |
| 2026-04-28 16:56 | 17.68001 | 74.03550 | 28173 ft | 407 kts | 304° |
| 2026-04-28 16:56 | 17.69731 | 74.01220 | 27725 ft | 403 kts | 305° |
| 2026-04-28 16:56 | 17.71444 | 73.98910 | 27272 ft | 400 kts | 305° |
| 2026-04-28 16:57 | 17.73155 | 73.96603 | 26814 ft | 400 kts | 305° |
| 2026-04-28 16:57 | 17.74861 | 73.94301 | 26348 ft | 399 kts | 305° |
| 2026-04-28 16:57 | 17.76562 | 73.92006 | 25884 ft | 398 kts | 306° |
| 2026-04-28 16:57 | 17.78258 | 73.89715 | 25389 ft | 397 kts | 306° |
| 2026-04-28 16:58 | 17.79952 | 73.87429 | 24922 ft | 396 kts | 306° |
| 2026-04-28 16:58 | 17.81639 | 73.85151 | 24444 ft | 395 kts | 306° |
| 2026-04-28 16:58 | 17.83317 | 73.82885 | 23989 ft | 393 kts | 307° |
| 2026-04-28 16:58 | 17.84992 | 73.80622 | 23522 ft | 392 kts | 307° |
| 2026-04-28 16:59 | 17.86664 | 73.78364 | 22994 ft | 390 kts | 307° |
| 2026-04-28 16:59 | 17.88325 | 73.76117 | 22517 ft | 389 kts | 307° |
| 2026-04-28 16:59 | 17.89976 | 73.73885 | 22066 ft | 386 kts | 307° |
| 2026-04-28 16:59 | 17.91594 | 73.71694 | 21621 ft | 383 kts | 307° |
| 2026-04-28 17:00 | 17.93227 | 73.69485 | 21147 ft | 381 kts | 308° |
| 2026-04-28 17:00 | 17.94842 | 73.67297 | 20708 ft | 379 kts | 308° |
| 2026-04-28 17:00 | 17.96457 | 73.65110 | 20258 ft | 377 kts | 308° |
| 2026-04-28 17:00 | 17.98061 | 73.62937 | 19802 ft | 376 kts | 308° |
| 2026-04-28 17:01 | 17.99663 | 73.60766 | 19375 ft | 376 kts | 308° |
| 2026-04-28 17:01 | 18.01265 | 73.58594 | 18920 ft | 376 kts | 308° |
| 2026-04-28 17:01 | 18.02863 | 73.56428 | 18461 ft | 374 kts | 308° |
| 2026-04-28 17:01 | 18.04453 | 73.54270 | 17995 ft | 373 kts | 308° |
| 2026-04-28 17:02 | 18.06020 | 73.52143 | 17769 ft | 362 kts | 308° |
| 2026-04-28 17:02 | 18.07029 | 73.50773 | 17691 ft | 353 kts | 308° |
| 2026-04-28 17:02 | 18.08991 | 73.48109 | 17500 ft | 337 kts | 308° |
| 2026-04-28 17:02 | 18.10402 | 73.46191 | 17375 ft | 326 kts | 308° |
| 2026-04-28 17:03 | 18.13112 | 73.42510 | 17075 ft | 310 kts | 308° |
| 2026-04-28 17:03 | 18.14428 | 73.40722 | 16758 ft | 309 kts | 308° |
| 2026-04-28 17:03 | 18.15841 | 73.39030 | 16430 ft | 307 kts | 319° |
| 2026-04-28 17:04 | 18.19547 | 73.36894 | 15808 ft | 303 kts | 337° |
| 2026-04-28 17:04 | 18.21483 | 73.36040 | 15512 ft | 302 kts | 338° |
| 2026-04-28 17:05 | 18.25320 | 73.34352 | 14934 ft | 299 kts | 337° |
| 2026-04-28 17:05 | 18.27237 | 73.33502 | 14634 ft | 299 kts | 337° |
| 2026-04-28 17:05 | 18.29148 | 73.32651 | 14345 ft | 298 kts | 337° |
| 2026-04-28 17:06 | 18.32951 | 73.30954 | 13747 ft | 297 kts | 337° |
| 2026-04-28 17:06 | 18.34851 | 73.30104 | 13423 ft | 296 kts | 337° |
| 2026-04-28 17:06 | 18.38627 | 73.28415 | 12836 ft | 293 kts | 336° |
| 2026-04-28 17:07 | 18.40500 | 73.27577 | 12540 ft | 292 kts | 336° |
| 2026-04-28 17:07 | 18.42363 | 73.26743 | 12247 ft | 290 kts | 336° |
| 2026-04-28 17:07 | 18.44216 | 73.25913 | 11958 ft | 289 kts | 336° |
| 2026-04-28 17:07 | 18.46062 | 73.25086 | 11666 ft | 288 kts | 336° |
| 2026-04-28 17:08 | 18.47906 | 73.24260 | 11368 ft | 287 kts | 336° |
| 2026-04-28 17:08 | 18.49738 | 73.23439 | 11083 ft | 285 kts | 336° |
| 2026-04-28 17:08 | 18.51562 | 73.22621 | 10762 ft | 284 kts | 336° |
| 2026-04-28 17:08 | 18.53377 | 73.21807 | 10482 ft | 284 kts | 336° |
| 2026-04-28 17:09 | 18.55193 | 73.20993 | 10142 ft | 284 kts | 336° |
| 2026-04-28 17:09 | 18.56991 | 73.20186 | 10021 ft | 276 kts | 336° |
| 2026-04-28 17:09 | 18.58725 | 73.19409 | 9956 ft | 266 kts | 336° |
| 2026-04-28 17:09 | 18.60400 | 73.18657 | 9861 ft | 258 kts | 336° |
| 2026-04-28 17:10 | 18.62051 | 73.17916 | 9618 ft | 258 kts | 336° |
| 2026-04-28 17:10 | 18.63147 | 73.17424 | 9434 ft | 258 kts | 336° |
| 2026-04-28 17:10 | 18.64797 | 73.16682 | 9180 ft | 257 kts | 336° |
| 2026-04-28 17:10 | 18.66491 | 73.16029 | 9002 ft | 265 kts | 346° |
| 2026-04-28 17:11 | 18.68344 | 73.15795 | 8810 ft | 270 kts | 356° |
| 2026-04-28 17:11 | 18.70221 | 73.15735 | 8663 ft | 271 kts | 357° |
| 2026-04-28 17:11 | 18.72100 | 73.15699 | 8518 ft | 269 kts | 358° |
| 2026-04-28 17:11 | 18.73974 | 73.15662 | 8361 ft | 268 kts | 357° |
| 2026-04-28 17:12 | 18.75837 | 73.15621 | 8228 ft | 267 kts | 357° |
| 2026-04-28 17:12 | 18.77691 | 73.15577 | 8081 ft | 266 kts | 357° |
| 2026-04-28 17:12 | 18.79533 | 73.15532 | 7945 ft | 265 kts | 357° |
| 2026-04-28 17:12 | 18.81370 | 73.15485 | 7803 ft | 264 kts | 357° |
| 2026-04-28 17:13 | 18.83200 | 73.15438 | 7665 ft | 262 kts | 357° |
| 2026-04-28 17:13 | 18.85021 | 73.15391 | 7525 ft | 261 kts | 357° |
| 2026-04-28 17:13 | 18.86836 | 73.15344 | 7371 ft | 260 kts | 357° |
| 2026-04-28 17:13 | 18.88644 | 73.15302 | 7249 ft | 259 kts | 358° |
| 2026-04-28 17:14 | 18.90425 | 73.15566 | 7095 ft | 260 kts | 18° |
| 2026-04-28 17:14 | 18.91938 | 73.16601 | 6954 ft | 263 kts | 46° |
| 2026-04-28 17:14 | 18.92799 | 73.18301 | 6813 ft | 267 kts | 75° |
| 2026-04-28 17:14 | 18.93024 | 73.20256 | 6678 ft | 269 kts | 85° |
| 2026-04-28 17:15 | 18.93091 | 73.22237 | 6536 ft | 270 kts | 86° |
| 2026-04-28 17:15 | 18.93143 | 73.24215 | 6393 ft | 268 kts | 85° |
| 2026-04-28 17:15 | 18.93203 | 73.26182 | 6258 ft | 268 kts | 85° |
| 2026-04-28 17:15 | 18.93272 | 73.28151 | 6111 ft | 268 kts | 85° |
| 2026-04-28 17:16 | 18.93346 | 73.30117 | 6022 ft | 268 kts | 85° |
| 2026-04-28 17:16 | 18.93422 | 73.32052 | 5998 ft | 263 kts | 85° |
| 2026-04-28 17:16 | 18.93495 | 73.33952 | 5998 ft | 251 kts | 85° |
| 2026-04-28 17:16 | 18.93710 | 73.35754 | 5996 ft | 245 kts | 69° |
| 2026-04-28 17:17 | 18.94581 | 73.37211 | 6015 ft | 236 kts | 36° |
| 2026-04-28 17:17 | 18.96025 | 73.37926 | 6029 ft | 236 kts | 6° |
| 2026-04-28 17:17 | 18.97735 | 73.38056 | 6019 ft | 247 kts | 358° |
| 2026-04-28 17:17 | 18.99401 | 73.38052 | 6012 ft | 233 kts | 356° |
| 2026-04-28 17:18 | 19.01000 | 73.38037 | 6017 ft | 228 kts | 356° |
| 2026-04-28 17:18 | 19.02579 | 73.37971 | 6015 ft | 226 kts | 346° |
| 2026-04-28 17:18 | 19.03945 | 73.37247 | 6013 ft | 220 kts | 315° |
| 2026-04-28 17:18 | 19.04879 | 73.35968 | 5783 ft | 222 kts | 302° |
| 2026-04-28 17:19 | 19.05761 | 73.34636 | 5518 ft | 221 kts | 313° |
| 2026-04-28 17:19 | 19.06879 | 73.33534 | 5275 ft | 219 kts | 319° |
| 2026-04-28 17:19 | 19.07866 | 73.32316 | 5014 ft | 219 kts | 303° |
| 2026-04-28 17:19 | 19.08690 | 73.30970 | 4784 ft | 218 kts | 302° |
| 2026-04-28 17:20 | 19.09269 | 73.29493 | 4506 ft | 220 kts | 286° |
| 2026-04-28 17:20 | 19.09435 | 73.28424 | 4263 ft | 225 kts | 277° |
| 2026-04-28 17:20 | 19.09452 | 73.26206 | 3898 ft | 225 kts | 271° |
| 2026-04-28 17:20 | 19.09415 | 73.24554 | 3959 ft | 223 kts | 271° |
| 2026-04-28 17:21 | 19.09384 | 73.22908 | 4412 ft | 226 kts | 271° |
| 2026-04-28 17:21 | 19.09355 | 73.21239 | 4831 ft | 227 kts | 272° |
| 2026-04-28 17:21 | 19.09325 | 73.19600 | 4959 ft | 216 kts | 272° |
| 2026-04-28 17:22 | 19.09289 | 73.16614 | 4996 ft | 193 kts | 272° |
| 2026-04-28 17:22 | 19.09270 | 73.15220 | 4964 ft | 192 kts | 272° |
| 2026-04-28 17:22 | 19.09244 | 73.13810 | 4764 ft | 192 kts | 272° |
| 2026-04-28 17:23 | 19.09206 | 73.10955 | 4154 ft | 197 kts | 272° |
| 2026-04-28 17:23 | 19.09186 | 73.09506 | 3864 ft | 198 kts | 271° |
| 2026-04-28 17:23 | 19.09165 | 73.08051 | 3594 ft | 198 kts | 271° |
| 2026-04-28 17:23 | 19.09145 | 73.06618 | 3359 ft | 191 kts | 271° |
| 2026-04-28 17:24 | 19.09126 | 73.05257 | 3121 ft | 180 kts | 271° |
| 2026-04-28 17:24 | 19.09107 | 73.03969 | 2908 ft | 171 kts | 271° |
| 2026-04-28 17:24 | 19.09092 | 73.02726 | 2697 ft | 168 kts | 271° |
| 2026-04-28 17:24 | 19.09075 | 73.01500 | 2476 ft | 166 kts | 271° |
| 2026-04-28 17:25 | 19.09058 | 73.00286 | 2284 ft | 165 kts | 270° |
| 2026-04-28 17:25 | 19.09025 | 72.97880 | 1866 ft | 163 kts | 269° |
| 2026-04-28 17:25 | 19.09008 | 72.96707 | 1663 ft | 153 kts | 269° |
| 2026-04-28 17:26 | 19.08993 | 72.95633 | 1460 ft | 139 kts | 269° |
| 2026-04-28 17:26 | 19.08979 | 72.94655 | 1300 ft | 130 kts | 270° |
| 2026-04-28 17:26 | 19.08966 | 72.93701 | 1127 ft | 129 kts | 269° |
| 2026-04-28 17:26 | 19.08954 | 72.92753 | 972 ft | 129 kts | 269° |
| 2026-04-28 17:27 | 19.08941 | 72.91801 | 813 ft | 129 kts | 269° |
| 2026-04-28 17:27 | 19.08928 | 72.90852 | 664 ft | 129 kts | 269° |
| 2026-04-28 17:27 | 19.08915 | 72.89896 | 495 ft | 131 kts | 269° |
| 2026-04-28 17:27 | 19.08908 | 72.88942 | 334 ft | 129 kts | 269° |
| 2026-04-28 17:28 | 19.08886 | 72.88001 | 153 ft | 128 kts | 268° |
| 2026-04-28 17:28 | 19.08865 | 72.86315 | 52 ft | 75 kts | 269° |
| 2026-04-28 17:28 | 19.08874 | 72.86014 | 47 ft | 22 kts | 281° |
| 2026-04-28 17:29 | 19.08924 | 72.85882 | 48 ft | 17 kts | 300° |
| 2026-04-28 17:29 | 19.08980 | 72.85818 | 49 ft | 10 kts | 341° |
| 2026-04-28 17:29 | 19.09052 | 72.85833 | 51 ft | 11 kts | 28° |
| 2026-04-28 17:30 | 19.09090 | 72.85878 | 48 ft | 3 kts | 102° |
| 2026-04-28 17:30 | 19.09041 | 72.85892 | 51 ft | 8 kts | 115° |
| 2026-04-28 17:30 | 19.09032 | 72.85970 | 52 ft | 12 kts | 90° |
| 2026-04-28 17:31 | 19.09033 | 72.86069 | 52 ft | 14 kts | 89° |
| 2026-04-28 17:31 | 19.09036 | 72.86303 | 52 ft | 17 kts | 89° |
| 2026-04-28 17:32 | 19.09040 | 72.86581 | 48 ft | 20 kts | 88° |
| 2026-04-28 17:32 | 19.09043 | 72.86732 | 54 ft | 21 kts | 89° |
| 2026-04-28 17:32 | 19.09045 | 72.86893 | 54 ft | 23 kts | 89° |
| 2026-04-28 17:32 | 19.09046 | 72.87061 | 53 ft | 24 kts | 88° |
| 2026-04-28 17:33 | 19.09049 | 72.87194 | 50 ft | 11 kts | 89° |
| 2026-04-28 17:33 | 19.09088 | 72.87257 | 51 ft | 11 kts | 26° |
| 2026-04-28 17:33 | 19.09166 | 72.87265 | 49 ft | 12 kts | 1° |
| 2026-04-28 17:33 | 19.09221 | 72.87251 | 51 ft | 12 kts | 339° |
| 2026-04-28 17:34 | 19.09286 | 72.87222 | 48 ft | 6 kts | 337° |
| 2026-04-28 17:34 | 19.09312 | 72.87211 | 51 ft | 3 kts | 337° |
| 2026-04-28 17:34 | 19.09313 | 72.87210 | 51 ft | 0 kts | 337° |